sensor_id;sensor_type;location;lat;lon;timestamp;P1;durP1;ratioP1;P2;durP2;ratioP2
32407;SDS011;18869;55.970;37.502;2023-08-21T00:01:28;6.67;;;4.87;;
32407;SDS011;18869;55.970;37.502;2023-08-21T00:03:55;5.30;;;4.80;;
32407;SDS011;18869;55.970;37.502;2023-08-21T00:06:22;4.63;;;4.23;;
32407;SDS011;18869;55.970;37.502;2023-08-21T00:08:49;6.13;;;4.60;;
32407;SDS011;18869;55.970;37.502;2023-08-21T00:11:17;7.13;;;5.37;;
32407;SDS011;18869;55.970;37.502;2023-08-21T00:13:44;5.33;;;4.83;;
32407;SDS011;18869;55.970;37.502;2023-08-21T00:16:13;6.43;;;4.77;;
32407;SDS011;18869;55.970;37.502;2023-08-21T00:18:40;5.60;;;4.40;;
32407;SDS011;18869;55.970;37.502;2023-08-21T00:21:07;5.30;;;4.80;;
32407;SDS011;18869;55.970;37.502;2023-08-21T00:23:34;5.23;;;4.73;;
32407;SDS011;18869;55.970;37.502;2023-08-21T00:26:01;5.10;;;4.70;;
32407;SDS011;18869;55.970;37.502;2023-08-21T00:28:28;5.33;;;4.80;;
32407;SDS011;18869;55.970;37.502;2023-08-21T00:31:00;5.13;;;4.67;;
32407;SDS011;18869;55.970;37.502;2023-08-21T00:33:28;4.87;;;4.33;;
32407;SDS011;18869;55.970;37.502;2023-08-21T00:35:55;5.53;;;4.90;;
32407;SDS011;18869;55.970;37.502;2023-08-21T00:38:23;4.97;;;4.57;;
32407;SDS011;18869;55.970;37.502;2023-08-21T00:40:50;5.03;;;4.57;;
32407;SDS011;18869;55.970;37.502;2023-08-21T00:43:17;5.87;;;4.40;;
32407;SDS011;18869;55.970;37.502;2023-08-21T00:45:45;5.07;;;4.43;;
32407;SDS011;18869;55.970;37.502;2023-08-21T00:48:13;7.70;;;5.30;;
32407;SDS011;18869;55.970;37.502;2023-08-21T00:50:40;5.10;;;4.60;;
32407;SDS011;18869;55.970;37.502;2023-08-21T00:53:08;7.33;;;4.70;;
32407;SDS011;18869;55.970;37.502;2023-08-21T00:55:35;5.10;;;4.27;;
32407;SDS011;18869;55.970;37.502;2023-08-21T00:58:02;4.47;;;4.07;;
32407;SDS011;18869;55.970;37.502;2023-08-21T01:00:29;4.37;;;3.80;;
32407;SDS011;18869;55.970;37.502;2023-08-21T01:02:58;4.67;;;4.23;;
32407;SDS011;18869;55.970;37.502;2023-08-21T01:05:24;5.97;;;4.93;;
32407;SDS011;18869;55.970;37.502;2023-08-21T01:07:52;4.97;;;3.67;;
32407;SDS011;18869;55.970;37.502;2023-08-21T01:10:26;6.47;;;4.03;;
32407;SDS011;18869;55.970;37.502;2023-08-21T01:13:01;4.00;;;3.60;;
32407;SDS011;18869;55.970;37.502;2023-08-21T01:15:32;3.90;;;3.60;;
32407;SDS011;18869;55.970;37.502;2023-08-21T01:18:00;5.63;;;4.07;;
32407;SDS011;18869;55.970;37.502;2023-08-21T01:20:27;4.80;;;4.30;;
32407;SDS011;18869;55.970;37.502;2023-08-21T01:22:55;4.30;;;3.90;;
32407;SDS011;18869;55.970;37.502;2023-08-21T01:25:22;4.80;;;3.67;;
32407;SDS011;18869;55.970;37.502;2023-08-21T01:27:49;5.30;;;3.90;;
32407;SDS011;18869;55.970;37.502;2023-08-21T01:30:17;3.83;;;3.53;;
32407;SDS011;18869;55.970;37.502;2023-08-21T01:32:47;4.13;;;3.80;;
32407;SDS011;18869;55.970;37.502;2023-08-21T01:35:16;4.43;;;4.00;;
32407;SDS011;18869;55.970;37.502;2023-08-21T01:37:44;5.30;;;3.93;;
32407;SDS011;18869;55.970;37.502;2023-08-21T01:40:10;4.57;;;3.67;;
32407;SDS011;18869;55.970;37.502;2023-08-21T01:42:39;6.47;;;4.10;;
32407;SDS011;18869;55.970;37.502;2023-08-21T01:45:06;4.30;;;3.90;;
32407;SDS011;18869;55.970;37.502;2023-08-21T01:47:37;5.07;;;3.97;;
32407;SDS011;18869;55.970;37.502;2023-08-21T01:50:04;3.73;;;3.30;;
32407;SDS011;18869;55.970;37.502;2023-08-21T01:52:32;4.87;;;3.80;;
32407;SDS011;18869;55.970;37.502;2023-08-21T01:54:59;5.77;;;3.77;;
32407;SDS011;18869;55.970;37.502;2023-08-21T01:57:26;4.40;;;3.13;;
32407;SDS011;18869;55.970;37.502;2023-08-21T01:59:54;5.30;;;3.83;;
32407;SDS011;18869;55.970;37.502;2023-08-21T02:02:21;4.53;;;3.57;;
32407;SDS011;18869;55.970;37.502;2023-08-21T02:04:48;3.67;;;3.20;;
32407;SDS011;18869;55.970;37.502;2023-08-21T02:07:15;4.63;;;3.90;;
32407;SDS011;18869;55.970;37.502;2023-08-21T02:09:42;4.10;;;3.70;;
32407;SDS011;18869;55.970;37.502;2023-08-21T02:12:09;5.03;;;3.73;;
32407;SDS011;18869;55.970;37.502;2023-08-21T02:14:36;3.90;;;3.43;;
32407;SDS011;18869;55.970;37.502;2023-08-21T02:17:04;4.90;;;4.40;;
32407;SDS011;18869;55.970;37.502;2023-08-21T02:19:31;4.23;;;3.67;;
32407;SDS011;18869;55.970;37.502;2023-08-21T02:21:58;4.93;;;3.80;;
32407;SDS011;18869;55.970;37.502;2023-08-21T02:24:25;9.93;;;4.13;;
32407;SDS011;18869;55.970;37.502;2023-08-21T02:26:52;4.23;;;3.83;;
32407;SDS011;18869;55.970;37.502;2023-08-21T02:29:18;3.93;;;3.53;;
32407;SDS011;18869;55.970;37.502;2023-08-21T02:31:45;3.83;;;3.47;;
32407;SDS011;18869;55.970;37.502;2023-08-21T02:34:13;4.87;;;3.77;;
32407;SDS011;18869;55.970;37.502;2023-08-21T02:36:39;3.43;;;3.13;;
32407;SDS011;18869;55.970;37.502;2023-08-21T02:39:06;6.43;;;3.53;;
32407;SDS011;18869;55.970;37.502;2023-08-21T02:41:33;4.63;;;4.23;;
32407;SDS011;18869;55.970;37.502;2023-08-21T02:44:00;4.83;;;3.57;;
32407;SDS011;18869;55.970;37.502;2023-08-21T02:46:26;4.23;;;3.83;;
32407;SDS011;18869;55.970;37.502;2023-08-21T02:48:53;4.60;;;4.00;;
32407;SDS011;18869;55.970;37.502;2023-08-21T02:51:21;3.93;;;3.40;;
32407;SDS011;18869;55.970;37.502;2023-08-21T02:53:49;4.70;;;4.00;;
32407;SDS011;18869;55.970;37.502;2023-08-21T02:56:16;6.53;;;4.00;;
32407;SDS011;18869;55.970;37.502;2023-08-21T02:58:43;7.07;;;4.33;;
32407;SDS011;18869;55.970;37.502;2023-08-21T03:01:09;6.57;;;4.10;;
32407;SDS011;18869;55.970;37.502;2023-08-21T03:03:37;4.60;;;3.73;;
32407;SDS011;18869;55.970;37.502;2023-08-21T03:06:04;4.57;;;3.77;;
32407;SDS011;18869;55.970;37.502;2023-08-21T03:08:32;5.13;;;3.97;;
32407;SDS011;18869;55.970;37.502;2023-08-21T03:10:59;4.23;;;3.80;;
32407;SDS011;18869;55.970;37.502;2023-08-21T03:13:26;5.37;;;3.73;;
32407;SDS011;18869;55.970;37.502;2023-08-21T03:15:53;3.87;;;3.53;;
32407;SDS011;18869;55.970;37.502;2023-08-21T03:18:21;7.10;;;3.70;;
32407;SDS011;18869;55.970;37.502;2023-08-21T03:20:47;4.83;;;3.40;;
32407;SDS011;18869;55.970;37.502;2023-08-21T03:23:15;4.20;;;3.83;;
32407;SDS011;18869;55.970;37.502;2023-08-21T03:25:45;4.07;;;3.57;;
32407;SDS011;18869;55.970;37.502;2023-08-21T03:28:12;3.87;;;3.47;;
32407;SDS011;18869;55.970;37.502;2023-08-21T03:30:39;4.03;;;3.73;;
32407;SDS011;18869;55.970;37.502;2023-08-21T03:33:07;3.73;;;3.43;;
32407;SDS011;18869;55.970;37.502;2023-08-21T03:35:34;3.90;;;2.97;;
32407;SDS011;18869;55.970;37.502;2023-08-21T03:38:01;3.80;;;3.40;;
32407;SDS011;18869;55.970;37.502;2023-08-21T03:40:29;3.40;;;3.17;;
32407;SDS011;18869;55.970;37.502;2023-08-21T03:42:57;3.20;;;2.90;;
32407;SDS011;18869;55.970;37.502;2023-08-21T03:45:24;4.93;;;3.63;;
32407;SDS011;18869;55.970;37.502;2023-08-21T03:47:52;3.93;;;3.17;;
32407;SDS011;18869;55.970;37.502;2023-08-21T03:50:19;3.53;;;2.87;;
32407;SDS011;18869;55.970;37.502;2023-08-21T03:52:47;3.50;;;3.13;;
32407;SDS011;18869;55.970;37.502;2023-08-21T03:55:14;3.57;;;2.90;;
32407;SDS011;18869;55.970;37.502;2023-08-21T03:57:42;2.80;;;2.60;;
32407;SDS011;18869;55.970;37.502;2023-08-21T04:00:10;5.87;;;3.60;;
32407;SDS011;18869;55.970;37.502;2023-08-21T04:02:41;3.80;;;2.50;;
32407;SDS011;18869;55.970;37.502;2023-08-21T04:05:09;2.87;;;2.57;;
32407;SDS011;18869;55.970;37.502;2023-08-21T04:07:36;4.47;;;2.87;;
32407;SDS011;18869;55.970;37.502;2023-08-21T04:10:04;5.47;;;3.13;;
32407;SDS011;18869;55.970;37.502;2023-08-21T04:12:32;2.47;;;2.00;;
32407;SDS011;18869;55.970;37.502;2023-08-21T04:14:59;2.97;;;2.30;;
32407;SDS011;18869;55.970;37.502;2023-08-21T04:17:26;5.97;;;2.70;;
32407;SDS011;18869;55.970;37.502;2023-08-21T04:19:53;4.73;;;2.60;;
32407;SDS011;18869;55.970;37.502;2023-08-21T04:22:21;2.67;;;2.23;;
32407;SDS011;18869;55.970;37.502;2023-08-21T04:24:47;2.83;;;2.30;;
32407;SDS011;18869;55.970;37.502;2023-08-21T04:27:15;2.33;;;2.23;;
32407;SDS011;18869;55.970;37.502;2023-08-21T04:29:42;3.07;;;2.37;;
32407;SDS011;18869;55.970;37.502;2023-08-21T04:32:09;2.10;;;1.80;;
32407;SDS011;18869;55.970;37.502;2023-08-21T04:34:37;2.10;;;1.90;;
32407;SDS011;18869;55.970;37.502;2023-08-21T04:37:04;3.37;;;1.93;;
32407;SDS011;18869;55.970;37.502;2023-08-21T04:39:30;2.30;;;2.10;;
32407;SDS011;18869;55.970;37.502;2023-08-21T04:41:57;2.03;;;1.87;;
32407;SDS011;18869;55.970;37.502;2023-08-21T04:44:24;1.60;;;1.50;;
32407;SDS011;18869;55.970;37.502;2023-08-21T04:46:51;2.43;;;2.23;;
32407;SDS011;18869;55.970;37.502;2023-08-21T04:49:18;2.20;;;2.00;;
32407;SDS011;18869;55.970;37.502;2023-08-21T04:51:46;2.03;;;1.73;;
32407;SDS011;18869;55.970;37.502;2023-08-21T04:54:13;2.13;;;1.90;;
32407;SDS011;18869;55.970;37.502;2023-08-21T04:56:40;2.77;;;2.00;;
32407;SDS011;18869;55.970;37.502;2023-08-21T04:59:07;2.17;;;1.90;;
32407;SDS011;18869;55.970;37.502;2023-08-21T05:01:34;6.87;;;1.93;;
32407;SDS011;18869;55.970;37.502;2023-08-21T05:04:02;1.93;;;1.83;;
32407;SDS011;18869;55.970;37.502;2023-08-21T05:06:29;3.13;;;1.90;;
32407;SDS011;18869;55.970;37.502;2023-08-21T05:08:57;1.73;;;1.63;;
32407;SDS011;18869;55.970;37.502;2023-08-21T05:11:24;2.30;;;2.03;;
32407;SDS011;18869;55.970;37.502;2023-08-21T05:13:51;4.30;;;1.70;;
32407;SDS011;18869;55.970;37.502;2023-08-21T05:16:18;3.27;;;2.10;;
32407;SDS011;18869;55.970;37.502;2023-08-21T05:18:46;1.67;;;1.47;;
32407;SDS011;18869;55.970;37.502;2023-08-21T05:21:12;3.87;;;1.60;;
32407;SDS011;18869;55.970;37.502;2023-08-21T05:23:40;4.20;;;1.83;;
32407;SDS011;18869;55.970;37.502;2023-08-21T05:26:08;1.53;;;1.20;;
32407;SDS011;18869;55.970;37.502;2023-08-21T05:28:35;1.33;;;1.13;;
32407;SDS011;18869;55.970;37.502;2023-08-21T05:31:02;1.33;;;1.20;;
32407;SDS011;18869;55.970;37.502;2023-08-21T05:33:32;1.20;;;0.90;;
32407;SDS011;18869;55.970;37.502;2023-08-21T05:35:59;3.80;;;1.37;;
32407;SDS011;18869;55.970;37.502;2023-08-21T05:38:26;2.17;;;1.00;;
32407;SDS011;18869;55.970;37.502;2023-08-21T05:40:54;4.75;;;1.20;;
32407;SDS011;18869;55.970;37.502;2023-08-21T05:43:22;1.00;;;0.70;;
32407;SDS011;18869;55.970;37.502;2023-08-21T05:45:48;1.25;;;0.82;;
32407;SDS011;18869;55.970;37.502;2023-08-21T05:48:16;1.95;;;0.95;;
32407;SDS011;18869;55.970;37.502;2023-08-21T05:50:43;0.95;;;0.90;;
32407;SDS011;18869;55.970;37.502;2023-08-21T05:53:10;2.08;;;0.73;;
32407;SDS011;18869;55.970;37.502;2023-08-21T05:55:37;1.52;;;0.90;;
32407;SDS011;18869;55.970;37.502;2023-08-21T05:58:05;0.90;;;0.80;;
32407;SDS011;18869;55.970;37.502;2023-08-21T06:00:33;1.73;;;0.90;;
32407;SDS011;18869;55.970;37.502;2023-08-21T06:03:01;0.95;;;0.80;;
32407;SDS011;18869;55.970;37.502;2023-08-21T06:05:30;1.10;;;0.70;;
32407;SDS011;18869;55.970;37.502;2023-08-21T06:07:57;1.42;;;0.50;;
32407;SDS011;18869;55.970;37.502;2023-08-21T06:10:24;1.33;;;0.68;;
32407;SDS011;18869;55.970;37.502;2023-08-21T06:12:51;0.77;;;0.60;;
32407;SDS011;18869;55.970;37.502;2023-08-21T06:15:18;1.40;;;1.05;;
32407;SDS011;18869;55.970;37.502;2023-08-21T06:17:46;1.58;;;0.90;;
32407;SDS011;18869;55.970;37.502;2023-08-21T06:20:13;1.62;;;0.95;;
32407;SDS011;18869;55.970;37.502;2023-08-21T06:22:40;3.22;;;0.93;;
32407;SDS011;18869;55.970;37.502;2023-08-21T06:25:08;1.67;;;0.80;;
32407;SDS011;18869;55.970;37.502;2023-08-21T06:27:35;1.55;;;0.77;;
32407;SDS011;18869;55.970;37.502;2023-08-21T06:30:02;0.95;;;0.85;;
32407;SDS011;18869;55.970;37.502;2023-08-21T06:32:31;1.98;;;0.70;;
32407;SDS011;18869;55.970;37.502;2023-08-21T06:34:58;0.82;;;0.70;;
32407;SDS011;18869;55.970;37.502;2023-08-21T06:37:25;0.88;;;0.80;;
32407;SDS011;18869;55.970;37.502;2023-08-21T06:39:52;1.67;;;0.88;;
32407;SDS011;18869;55.970;37.502;2023-08-21T06:42:19;1.52;;;0.85;;
32407;SDS011;18869;55.970;37.502;2023-08-21T06:44:46;7.62;;;0.95;;
32407;SDS011;18869;55.970;37.502;2023-08-21T06:47:14;2.15;;;1.08;;
32407;SDS011;18869;55.970;37.502;2023-08-21T06:49:40;1.17;;;0.95;;
32407;SDS011;18869;55.970;37.502;2023-08-21T06:52:08;0.80;;;0.65;;
32407;SDS011;18869;55.970;37.502;2023-08-21T06:54:35;1.10;;;0.93;;
32407;SDS011;18869;55.970;37.502;2023-08-21T06:57:01;1.17;;;0.93;;
32407;SDS011;18869;55.970;37.502;2023-08-21T06:59:28;1.30;;;0.80;;
32407;SDS011;18869;55.970;37.502;2023-08-21T07:01:55;2.75;;;1.25;;
32407;SDS011;18869;55.970;37.502;2023-08-21T07:04:22;1.20;;;0.90;;
32407;SDS011;18869;55.970;37.502;2023-08-21T07:06:49;1.10;;;0.82;;
32407;SDS011;18869;55.970;37.502;2023-08-21T07:09:16;0.85;;;0.82;;
32407;SDS011;18869;55.970;37.502;2023-08-21T07:11:43;1.92;;;0.82;;
32407;SDS011;18869;55.970;37.502;2023-08-21T07:14:10;1.85;;;0.88;;
32407;SDS011;18869;55.970;37.502;2023-08-21T07:16:39;2.85;;;1.00;;
32407;SDS011;18869;55.970;37.502;2023-08-21T07:19:06;1.92;;;1.30;;
32407;SDS011;18869;55.970;37.502;2023-08-21T07:21:32;2.62;;;1.30;;
32407;SDS011;18869;55.970;37.502;2023-08-21T07:24:02;1.27;;;0.90;;
32407;SDS011;18869;55.970;37.502;2023-08-21T07:26:29;1.00;;;0.90;;
32407;SDS011;18869;55.970;37.502;2023-08-21T07:28:56;1.40;;;0.70;;
32407;SDS011;18869;55.970;37.502;2023-08-21T07:31:23;1.02;;;0.75;;
32407;SDS011;18869;55.970;37.502;2023-08-21T07:33:50;0.95;;;0.90;;
32407;SDS011;18869;55.970;37.502;2023-08-21T07:36:17;1.00;;;0.80;;
32407;SDS011;18869;55.970;37.502;2023-08-21T07:38:44;2.08;;;0.90;;
32407;SDS011;18869;55.970;37.502;2023-08-21T07:41:11;1.75;;;0.80;;
32407;SDS011;18869;55.970;37.502;2023-08-21T07:43:40;2.15;;;0.93;;
32407;SDS011;18869;55.970;37.502;2023-08-21T07:46:09;2.20;;;0.98;;
32407;SDS011;18869;55.970;37.502;2023-08-21T07:48:39;2.50;;;1.02;;
32407;SDS011;18869;55.970;37.502;2023-08-21T07:51:05;1.10;;;0.80;;
32407;SDS011;18869;55.970;37.502;2023-08-21T07:53:32;0.70;;;0.70;;
32407;SDS011;18869;55.970;37.502;2023-08-21T07:56:00;2.05;;;0.82;;
32407;SDS011;18869;55.970;37.502;2023-08-21T07:58:27;10.68;;;1.55;;
32407;SDS011;18869;55.970;37.502;2023-08-21T08:00:54;1.23;;;0.80;;
32407;SDS011;18869;55.970;37.502;2023-08-21T08:03:21;0.90;;;0.65;;
32407;SDS011;18869;55.970;37.502;2023-08-21T08:05:48;4.70;;;0.82;;
32407;SDS011;18869;55.970;37.502;2023-08-21T08:08:16;1.08;;;0.70;;
32407;SDS011;18869;55.970;37.502;2023-08-21T08:10:43;1.55;;;0.80;;
32407;SDS011;18869;55.970;37.502;2023-08-21T08:13:10;1.33;;;0.80;;
32407;SDS011;18869;55.970;37.502;2023-08-21T08:15:37;1.12;;;0.80;;
32407;SDS011;18869;55.970;37.502;2023-08-21T08:18:10;0.55;;;0.55;;
32407;SDS011;18869;55.970;37.502;2023-08-21T08:20:37;2.05;;;0.80;;
32407;SDS011;18869;55.970;37.502;2023-08-21T08:23:04;1.45;;;0.77;;
32407;SDS011;18869;55.970;37.502;2023-08-21T08:25:31;0.93;;;0.85;;
32407;SDS011;18869;55.970;37.502;2023-08-21T08:27:58;1.90;;;1.00;;
32407;SDS011;18869;55.970;37.502;2023-08-21T08:30:26;0.73;;;0.73;;
32407;SDS011;18869;55.970;37.502;2023-08-21T08:32:52;1.98;;;1.02;;
32407;SDS011;18869;55.970;37.502;2023-08-21T08:35:20;1.42;;;0.93;;
32407;SDS011;18869;55.970;37.502;2023-08-21T08:37:47;3.47;;;0.90;;
32407;SDS011;18869;55.970;37.502;2023-08-21T08:40:14;2.03;;;1.00;;
32407;SDS011;18869;55.970;37.502;2023-08-21T08:42:40;1.58;;;1.08;;
32407;SDS011;18869;55.970;37.502;2023-08-21T08:45:08;0.85;;;0.85;;
32407;SDS011;18869;55.970;37.502;2023-08-21T08:47:35;3.25;;;1.02;;
32407;SDS011;18869;55.970;37.502;2023-08-21T08:50:05;1.77;;;0.85;;
32407;SDS011;18869;55.970;37.502;2023-08-21T08:52:37;1.30;;;0.90;;
32407;SDS011;18869;55.970;37.502;2023-08-21T08:55:06;3.00;;;1.05;;
32407;SDS011;18869;55.970;37.502;2023-08-21T08:57:33;2.25;;;1.00;;
32407;SDS011;18869;55.970;37.502;2023-08-21T09:00:02;1.70;;;1.00;;
32407;SDS011;18869;55.970;37.502;2023-08-21T09:02:36;1.15;;;0.80;;
32407;SDS011;18869;55.970;37.502;2023-08-21T09:05:03;1.35;;;1.25;;
32407;SDS011;18869;55.970;37.502;2023-08-21T09:07:32;1.25;;;1.15;;
32407;SDS011;18869;55.970;37.502;2023-08-21T09:10:00;0.90;;;0.68;;
32407;SDS011;18869;55.970;37.502;2023-08-21T09:12:31;1.65;;;0.80;;
32407;SDS011;18869;55.970;37.502;2023-08-21T09:14:58;1.37;;;0.65;;
32407;SDS011;18869;55.970;37.502;2023-08-21T09:17:25;1.10;;;0.70;;
32407;SDS011;18869;55.970;37.502;2023-08-21T09:19:53;1.15;;;0.80;;
32407;SDS011;18869;55.970;37.502;2023-08-21T09:22:20;0.68;;;0.68;;
32407;SDS011;18869;55.970;37.502;2023-08-21T09:25:00;0.73;;;0.70;;
32407;SDS011;18869;55.970;37.502;2023-08-21T09:27:33;2.08;;;0.93;;
32407;SDS011;18869;55.970;37.502;2023-08-21T09:30:01;3.55;;;1.80;;
32407;SDS011;18869;55.970;37.502;2023-08-21T09:32:34;0.90;;;0.90;;
32407;SDS011;18869;55.970;37.502;2023-08-21T09:35:19;1.27;;;0.77;;
32407;SDS011;18869;55.970;37.502;2023-08-21T09:37:46;1.60;;;0.90;;
32407;SDS011;18869;55.970;37.502;2023-08-21T09:40:14;3.95;;;1.20;;
32407;SDS011;18869;55.970;37.502;2023-08-21T09:42:41;1.85;;;0.85;;
32407;SDS011;18869;55.970;37.502;2023-08-21T09:45:08;1.87;;;1.08;;
32407;SDS011;18869;55.970;37.502;2023-08-21T09:47:35;1.20;;;0.98;;
32407;SDS011;18869;55.970;37.502;2023-08-21T09:50:03;2.50;;;0.88;;
32407;SDS011;18869;55.970;37.502;2023-08-21T09:52:30;1.33;;;0.80;;
32407;SDS011;18869;55.970;37.502;2023-08-21T09:55:16;1.58;;;0.75;;
32407;SDS011;18869;55.970;37.502;2023-08-21T09:57:45;1.23;;;0.95;;
32407;SDS011;18869;55.970;37.502;2023-08-21T10:00:12;1.37;;;0.95;;
32407;SDS011;18869;55.970;37.502;2023-08-21T10:02:42;3.10;;;0.85;;
32407;SDS011;18869;55.970;37.502;2023-08-21T10:05:11;3.28;;;0.70;;
32407;SDS011;18869;55.970;37.502;2023-08-21T10:07:39;1.60;;;0.95;;
32407;SDS011;18869;55.970;37.502;2023-08-21T10:10:07;1.27;;;0.95;;
32407;SDS011;18869;55.970;37.502;2023-08-21T10:12:35;0.70;;;0.70;;
32407;SDS011;18869;55.970;37.502;2023-08-21T10:15:02;1.67;;;0.95;;
32407;SDS011;18869;55.970;37.502;2023-08-21T10:17:30;1.05;;;1.00;;
32407;SDS011;18869;55.970;37.502;2023-08-21T10:20:02;0.90;;;0.90;;
32407;SDS011;18869;55.970;37.502;2023-08-21T10:22:38;1.35;;;0.80;;
32407;SDS011;18869;55.970;37.502;2023-08-21T10:25:14;1.87;;;0.90;;
32407;SDS011;18869;55.970;37.502;2023-08-21T10:27:42;2.53;;;1.20;;
32407;SDS011;18869;55.970;37.502;2023-08-21T10:30:13;1.48;;;0.80;;
32407;SDS011;18869;55.970;37.502;2023-08-21T10:32:44;1.45;;;0.73;;
32407;SDS011;18869;55.970;37.502;2023-08-21T10:35:17;0.95;;;0.73;;
32407;SDS011;18869;55.970;37.502;2023-08-21T10:40:34;2.50;;;1.15;;
32407;SDS011;18869;55.970;37.502;2023-08-21T10:43:02;2.12;;;1.92;;
32407;SDS011;18869;55.970;37.502;2023-08-21T10:45:29;1.67;;;1.45;;
32407;SDS011;18869;55.970;37.502;2023-08-21T10:47:56;1.12;;;0.93;;
32407;SDS011;18869;55.970;37.502;2023-08-21T10:50:23;1.58;;;0.90;;
32407;SDS011;18869;55.970;37.502;2023-08-21T10:52:51;3.42;;;1.27;;
32407;SDS011;18869;55.970;37.502;2023-08-21T10:55:19;1.02;;;0.80;;
32407;SDS011;18869;55.970;37.502;2023-08-21T10:57:46;2.20;;;1.08;;
32407;SDS011;18869;55.970;37.502;2023-08-21T11:00:15;1.30;;;1.02;;
32407;SDS011;18869;55.970;37.502;2023-08-21T11:02:43;2.37;;;1.00;;
32407;SDS011;18869;55.970;37.502;2023-08-21T11:05:11;1.10;;;1.00;;
32407;SDS011;18869;55.970;37.502;2023-08-21T11:07:39;4.97;;;1.00;;
32407;SDS011;18869;55.970;37.502;2023-08-21T11:10:07;2.67;;;0.90;;
32407;SDS011;18869;55.970;37.502;2023-08-21T11:12:35;2.50;;;0.90;;
32407;SDS011;18869;55.970;37.502;2023-08-21T11:15:02;1.83;;;1.20;;
32407;SDS011;18869;55.970;37.502;2023-08-21T11:17:31;1.55;;;1.45;;
32407;SDS011;18869;55.970;37.502;2023-08-21T11:20:00;7.15;;;1.67;;
32407;SDS011;18869;55.970;37.502;2023-08-21T11:22:31;2.20;;;1.00;;
32407;SDS011;18869;55.970;37.502;2023-08-21T11:24:59;0.80;;;0.80;;
32407;SDS011;18869;55.970;37.502;2023-08-21T11:27:26;1.02;;;0.98;;
32407;SDS011;18869;55.970;37.502;2023-08-21T11:29:53;2.40;;;1.00;;
32407;SDS011;18869;55.970;37.502;2023-08-21T11:32:20;1.23;;;1.10;;
32407;SDS011;18869;55.970;37.502;2023-08-21T11:34:50;4.17;;;1.00;;
32407;SDS011;18869;55.970;37.502;2023-08-21T11:37:17;2.57;;;1.20;;
32407;SDS011;18869;55.970;37.502;2023-08-21T11:39:47;2.60;;;1.10;;
32407;SDS011;18869;55.970;37.502;2023-08-21T11:42:15;1.60;;;1.20;;
32407;SDS011;18869;55.970;37.502;2023-08-21T11:44:43;1.03;;;0.93;;
32407;SDS011;18869;55.970;37.502;2023-08-21T11:47:11;3.57;;;1.10;;
32407;SDS011;18869;55.970;37.502;2023-08-21T11:49:39;2.20;;;1.33;;
32407;SDS011;18869;55.970;37.502;2023-08-21T11:52:08;4.80;;;1.87;;
32407;SDS011;18869;55.970;37.502;2023-08-21T11:54:35;1.17;;;1.00;;
32407;SDS011;18869;55.970;37.502;2023-08-21T11:57:06;4.23;;;1.23;;
32407;SDS011;18869;55.970;37.502;2023-08-21T11:59:35;3.67;;;1.20;;
32407;SDS011;18869;55.970;37.502;2023-08-21T12:02:07;3.90;;;0.97;;
32407;SDS011;18869;55.970;37.502;2023-08-21T12:04:36;1.23;;;0.93;;
32407;SDS011;18869;55.970;37.502;2023-08-21T12:07:02;0.80;;;0.80;;
32407;SDS011;18869;55.970;37.502;2023-08-21T12:09:30;1.67;;;1.07;;
32407;SDS011;18869;55.970;37.502;2023-08-21T12:11:57;2.90;;;1.00;;
32407;SDS011;18869;55.970;37.502;2023-08-21T12:14:24;1.90;;;0.90;;
32407;SDS011;18869;55.970;37.502;2023-08-21T12:16:51;4.17;;;1.20;;
32407;SDS011;18869;55.970;37.502;2023-08-21T12:19:18;3.00;;;1.17;;
32407;SDS011;18869;55.970;37.502;2023-08-21T12:21:47;3.23;;;1.20;;
32407;SDS011;18869;55.970;37.502;2023-08-21T12:24:14;1.57;;;1.30;;
32407;SDS011;18869;55.970;37.502;2023-08-21T12:26:42;2.73;;;1.60;;
32407;SDS011;18869;55.970;37.502;2023-08-21T12:29:09;1.50;;;1.40;;
32407;SDS011;18869;55.970;37.502;2023-08-21T12:31:36;2.87;;;1.63;;
32407;SDS011;18869;55.970;37.502;2023-08-21T12:34:03;1.67;;;1.40;;
32407;SDS011;18869;55.970;37.502;2023-08-21T12:36:30;2.27;;;1.00;;
32407;SDS011;18869;55.970;37.502;2023-08-21T12:38:56;1.43;;;1.00;;
32407;SDS011;18869;55.970;37.502;2023-08-21T12:41:23;2.70;;;1.10;;
32407;SDS011;18869;55.970;37.502;2023-08-21T12:43:51;2.40;;;1.07;;
32407;SDS011;18869;55.970;37.502;2023-08-21T12:46:17;3.23;;;1.10;;
32407;SDS011;18869;55.970;37.502;2023-08-21T12:48:44;2.40;;;1.10;;
32407;SDS011;18869;55.970;37.502;2023-08-21T12:51:11;1.17;;;0.90;;
32407;SDS011;18869;55.970;37.502;2023-08-21T12:53:38;1.80;;;1.13;;
32407;SDS011;18869;55.970;37.502;2023-08-21T12:56:05;1.47;;;1.00;;
32407;SDS011;18869;55.970;37.502;2023-08-21T12:58:31;1.97;;;1.07;;
32407;SDS011;18869;55.970;37.502;2023-08-21T13:00:59;2.97;;;1.37;;
32407;SDS011;18869;55.970;37.502;2023-08-21T13:03:26;1.20;;;1.10;;
32407;SDS011;18869;55.970;37.502;2023-08-21T13:05:53;2.17;;;1.10;;
32407;SDS011;18869;55.970;37.502;2023-08-21T13:08:19;1.07;;;1.00;;
32407;SDS011;18869;55.970;37.502;2023-08-21T13:10:47;4.87;;;3.13;;
32407;SDS011;18869;55.970;37.502;2023-08-21T13:13:13;2.60;;;1.77;;
32407;SDS011;18869;55.970;37.502;2023-08-21T13:15:40;6.57;;;2.10;;
32407;SDS011;18869;55.970;37.502;2023-08-21T13:18:11;2.13;;;1.40;;
32407;SDS011;18869;55.970;37.502;2023-08-21T13:20:38;9.33;;;3.33;;
32407;SDS011;18869;55.970;37.502;2023-08-21T13:23:04;7.10;;;2.00;;
32407;SDS011;18869;55.970;37.502;2023-08-21T13:25:31;9.57;;;5.07;;
32407;SDS011;18869;55.970;37.502;2023-08-21T13:28:00;4.50;;;2.70;;
32407;SDS011;18869;55.970;37.502;2023-08-21T13:30:27;10.67;;;2.77;;
32407;SDS011;18869;55.970;37.502;2023-08-21T13:32:55;10.90;;;6.00;;
32407;SDS011;18869;55.970;37.502;2023-08-21T13:35:23;10.00;;;5.37;;
32407;SDS011;18869;55.970;37.502;2023-08-21T13:37:50;24.17;;;14.10;;
32407;SDS011;18869;55.970;37.502;2023-08-21T13:40:17;30.03;;;16.87;;
32407;SDS011;18869;55.970;37.502;2023-08-21T13:42:47;69.10;;;33.23;;
32407;SDS011;18869;55.970;37.502;2023-08-21T13:45:14;28.20;;;15.40;;
32407;SDS011;18869;55.970;37.502;2023-08-21T13:47:43;43.97;;;24.83;;
32407;SDS011;18869;55.970;37.502;2023-08-21T13:50:10;85.50;;;45.37;;
32407;SDS011;18869;55.970;37.502;2023-08-21T13:52:38;34.80;;;19.03;;
32407;SDS011;18869;55.970;37.502;2023-08-21T13:55:06;81.67;;;40.87;;
32407;SDS011;18869;55.970;37.502;2023-08-21T13:57:34;60.73;;;33.27;;
32407;SDS011;18869;55.970;37.502;2023-08-21T14:00:02;22.33;;;11.67;;
32407;SDS011;18869;55.970;37.502;2023-08-21T14:02:33;18.00;;;9.47;;
32407;SDS011;18869;55.970;37.502;2023-08-21T14:05:00;30.70;;;16.83;;
32407;SDS011;18869;55.970;37.502;2023-08-21T14:07:29;17.77;;;10.37;;
32407;SDS011;18869;55.970;37.502;2023-08-21T14:09:57;9.97;;;6.13;;
32407;SDS011;18869;55.970;37.502;2023-08-21T14:12:24;16.23;;;9.43;;
32407;SDS011;18869;55.970;37.502;2023-08-21T14:14:51;12.63;;;7.80;;
32407;SDS011;18869;55.970;37.502;2023-08-21T14:17:17;19.33;;;10.63;;
32407;SDS011;18869;55.970;37.502;2023-08-21T14:19:44;13.47;;;7.70;;
32407;SDS011;18869;55.970;37.502;2023-08-21T14:22:11;7.47;;;4.87;;
32407;SDS011;18869;55.970;37.502;2023-08-21T14:24:38;21.37;;;11.90;;
32407;SDS011;18869;55.970;37.502;2023-08-21T14:27:05;7.63;;;4.83;;
32407;SDS011;18869;55.970;37.502;2023-08-21T14:29:31;11.47;;;4.60;;
32407;SDS011;18869;55.970;37.502;2023-08-21T14:31:59;4.37;;;2.23;;
32407;SDS011;18869;55.970;37.502;2023-08-21T14:34:26;7.60;;;3.23;;
32407;SDS011;18869;55.970;37.502;2023-08-21T14:36:53;5.10;;;2.73;;
32407;SDS011;18869;55.970;37.502;2023-08-21T14:39:22;13.93;;;4.67;;